sensor_id;sensor_type;location;lat;lon;timestamp;P1;durP1;ratioP1;P2;durP2;ratioP2
49948;SDS011;35840;45.982;8.890;2022-08-06T00:00:03;2.28;;;1.95;;
49948;SDS011;35840;45.982;8.890;2022-08-06T00:02:38;2.35;;;2.15;;
49948;SDS011;35840;45.982;8.890;2022-08-06T00:05:07;2.53;;;1.90;;
49948;SDS011;35840;45.982;8.890;2022-08-06T00:07:43;2.55;;;1.73;;
49948;SDS011;35840;45.982;8.890;2022-08-06T00:10:17;3.08;;;1.98;;
49948;SDS011;35840;45.982;8.890;2022-08-06T00:12:54;4.68;;;1.73;;
49948;SDS011;35840;45.982;8.890;2022-08-06T00:15:21;2.17;;;1.98;;
49948;SDS011;35840;45.982;8.890;2022-08-06T00:18:08;4.05;;;2.17;;
49948;SDS011;35840;45.982;8.890;2022-08-06T00:20:38;3.58;;;1.98;;
49948;SDS011;35840;45.982;8.890;2022-08-06T00:23:08;5.05;;;1.73;;
49948;SDS011;35840;45.982;8.890;2022-08-06T00:25:43;2.05;;;1.52;;
49948;SDS011;35840;45.982;8.890;2022-08-06T00:28:19;4.10;;;2.20;;
49948;SDS011;35840;45.982;8.890;2022-08-06T00:30:57;2.42;;;2.22;;
49948;SDS011;35840;45.982;8.890;2022-08-06T00:33:31;2.20;;;1.92;;
49948;SDS011;35840;45.982;8.890;2022-08-06T00:36:18;1.75;;;1.65;;
49948;SDS011;35840;45.982;8.890;2022-08-06T00:38:53;2.20;;;2.00;;
49948;SDS011;35840;45.982;8.890;2022-08-06T00:41:20;2.28;;;2.08;;
49948;SDS011;35840;45.982;8.890;2022-08-06T00:43:52;2.58;;;1.88;;
49948;SDS011;35840;45.982;8.890;2022-08-06T00:46:20;1.98;;;1.73;;
49948;SDS011;35840;45.982;8.890;2022-08-06T00:48:49;1.90;;;1.70;;
49948;SDS011;35840;45.982;8.890;2022-08-06T00:51:20;2.10;;;1.70;;
49948;SDS011;35840;45.982;8.890;2022-08-06T00:53:49;3.25;;;1.60;;
49948;SDS011;35840;45.982;8.890;2022-08-06T00:56:23;3.03;;;1.83;;
49948;SDS011;35840;45.982;8.890;2022-08-06T00:58:54;2.15;;;1.58;;
49948;SDS011;35840;45.982;8.890;2022-08-06T01:01:29;3.35;;;1.83;;
49948;SDS011;35840;45.982;8.890;2022-08-06T01:04:15;2.47;;;1.92;;
49948;SDS011;35840;45.982;8.890;2022-08-06T01:06:41;1.77;;;1.67;;
49948;SDS011;35840;45.982;8.890;2022-08-06T01:09:23;1.85;;;1.75;;
49948;SDS011;35840;45.982;8.890;2022-08-06T01:11:50;2.30;;;2.15;;
49948;SDS011;35840;45.982;8.890;2022-08-06T01:14:18;1.88;;;1.77;;
49948;SDS011;35840;45.982;8.890;2022-08-06T01:17:49;2.13;;;1.92;;
49948;SDS011;35840;45.982;8.890;2022-08-06T01:26:12;4.88;;;1.88;;
49948;SDS011;35840;45.982;8.890;2022-08-06T01:28:51;2.00;;;1.80;;
49948;SDS011;35840;45.982;8.890;2022-08-06T01:31:37;2.30;;;1.67;;
49948;SDS011;35840;45.982;8.890;2022-08-06T01:34:13;2.30;;;2.10;;
49948;SDS011;35840;45.982;8.890;2022-08-06T01:36:55;3.05;;;1.95;;
49948;SDS011;35840;45.982;8.890;2022-08-06T01:39:31;3.90;;;2.08;;
49948;SDS011;35840;45.982;8.890;2022-08-06T01:42:21;5.32;;;2.83;;
49948;SDS011;35840;45.982;8.890;2022-08-06T01:45:02;2.30;;;1.80;;
49948;SDS011;35840;45.982;8.890;2022-08-06T01:47:31;2.50;;;2.10;;
49948;SDS011;35840;45.982;8.890;2022-08-06T01:50:20;3.63;;;1.80;;
49948;SDS011;35840;45.982;8.890;2022-08-06T01:52:53;2.13;;;1.92;;
49948;SDS011;35840;45.982;8.890;2022-08-06T01:55:30;3.20;;;2.03;;
49948;SDS011;35840;45.982;8.890;2022-08-06T01:58:22;2.03;;;1.80;;
49948;SDS011;35840;45.982;8.890;2022-08-06T02:00:56;2.75;;;2.05;;
49948;SDS011;35840;45.982;8.890;2022-08-06T02:03:32;3.50;;;1.98;;
49948;SDS011;35840;45.982;8.890;2022-08-06T02:06:20;2.10;;;1.98;;
49948;SDS011;35840;45.982;8.890;2022-08-06T02:08:56;2.22;;;1.98;;
49948;SDS011;35840;45.982;8.890;2022-08-06T02:11:48;2.22;;;2.10;;
49948;SDS011;35840;45.982;8.890;2022-08-06T02:14:51;1.85;;;1.75;;
49948;SDS011;35840;45.982;8.890;2022-08-06T02:17:24;2.30;;;1.40;;
49948;SDS011;35840;45.982;8.890;2022-08-06T02:20:15;1.70;;;1.60;;
49948;SDS011;35840;45.982;8.890;2022-08-06T02:23:03;1.65;;;1.42;;
49948;SDS011;35840;45.982;8.890;2022-08-06T02:25:35;3.22;;;1.75;;
49948;SDS011;35840;45.982;8.890;2022-08-06T02:28:07;2.88;;;2.03;;
49948;SDS011;35840;45.982;8.890;2022-08-06T02:30:36;2.95;;;1.70;;
49948;SDS011;35840;45.982;8.890;2022-08-06T02:33:08;2.92;;;1.90;;
49948;SDS011;35840;45.982;8.890;2022-08-06T02:35:38;1.73;;;1.63;;
49948;SDS011;35840;45.982;8.890;2022-08-06T02:38:14;2.03;;;1.65;;
49948;SDS011;35840;45.982;8.890;2022-08-06T02:41:01;2.72;;;1.42;;
49948;SDS011;35840;45.982;8.890;2022-08-06T02:43:40;4.45;;;1.80;;
49948;SDS011;35840;45.982;8.890;2022-08-06T02:46:19;1.45;;;1.35;;
49948;SDS011;35840;45.982;8.890;2022-08-06T02:48:52;1.98;;;1.50;;
49948;SDS011;35840;45.982;8.890;2022-08-06T02:51:26;2.25;;;1.60;;
49948;SDS011;35840;45.982;8.890;2022-08-06T02:54:20;3.10;;;1.42;;
49948;SDS011;35840;45.982;8.890;2022-08-06T02:56:51;3.10;;;1.33;;
49948;SDS011;35840;45.982;8.890;2022-08-06T02:59:21;1.85;;;1.73;;
49948;SDS011;35840;45.982;8.890;2022-08-06T03:02:04;2.40;;;2.15;;
49948;SDS011;35840;45.982;8.890;2022-08-06T03:04:40;1.63;;;1.50;;
49948;SDS011;35840;45.982;8.890;2022-08-06T03:07:22;5.50;;;1.88;;
49948;SDS011;35840;45.982;8.890;2022-08-06T03:09:56;3.40;;;1.52;;
49948;SDS011;35840;45.982;8.890;2022-08-06T03:12:25;2.88;;;1.95;;
49948;SDS011;35840;45.982;8.890;2022-08-06T03:14:56;2.33;;;1.50;;
49948;SDS011;35840;45.982;8.890;2022-08-06T03:17:37;3.00;;;1.58;;
49948;SDS011;35840;45.982;8.890;2022-08-06T03:20:06;1.75;;;1.50;;
49948;SDS011;35840;45.982;8.890;2022-08-06T03:22:42;1.70;;;1.60;;
49948;SDS011;35840;45.982;8.890;2022-08-06T03:25:13;1.67;;;1.58;;
49948;SDS011;35840;45.982;8.890;2022-08-06T03:27:46;5.13;;;1.67;;
49948;SDS011;35840;45.982;8.890;2022-08-06T03:30:17;1.80;;;1.70;;
49948;SDS011;35840;45.982;8.890;2022-08-06T03:33:09;2.78;;;2.10;;
49948;SDS011;35840;45.982;8.890;2022-08-06T03:35:59;1.60;;;1.50;;
49948;SDS011;35840;45.982;8.890;2022-08-06T03:38:31;2.10;;;1.50;;
49948;SDS011;35840;45.982;8.890;2022-08-06T03:41:21;3.50;;;1.67;;
49948;SDS011;35840;45.982;8.890;2022-08-06T03:43:54;1.77;;;1.58;;
49948;SDS011;35840;45.982;8.890;2022-08-06T03:46:49;1.98;;;1.75;;
49948;SDS011;35840;45.982;8.890;2022-08-06T03:49:22;3.65;;;1.63;;
49948;SDS011;35840;45.982;8.890;2022-08-06T03:52:07;2.13;;;1.88;;
49948;SDS011;35840;45.982;8.890;2022-08-06T03:54:42;1.55;;;1.35;;
49948;SDS011;35840;45.982;8.890;2022-08-06T03:57:14;2.08;;;1.30;;
49948;SDS011;35840;45.982;8.890;2022-08-06T03:59:55;1.50;;;1.40;;
49948;SDS011;35840;45.982;8.890;2022-08-06T04:02:37;2.53;;;1.73;;
49948;SDS011;35840;45.982;8.890;2022-08-06T04:05:16;1.70;;;1.60;;
49948;SDS011;35840;45.982;8.890;2022-08-06T04:07:49;2.65;;;2.00;;
49948;SDS011;35840;45.982;8.890;2022-08-06T04:10:44;2.33;;;1.60;;
49948;SDS011;35840;45.982;8.890;2022-08-06T04:13:24;2.17;;;1.83;;
49948;SDS011;35840;45.982;8.890;2022-08-06T04:16:12;3.42;;;1.58;;
49948;SDS011;35840;45.982;8.890;2022-08-06T04:18:55;1.80;;;1.40;;
49948;SDS011;35840;45.982;8.890;2022-08-06T04:21:24;1.95;;;1.27;;
49948;SDS011;35840;45.982;8.890;2022-08-06T04:24:12;4.05;;;1.42;;
49948;SDS011;35840;45.982;8.890;2022-08-06T04:26:42;2.10;;;1.80;;
49948;SDS011;35840;45.982;8.890;2022-08-06T04:29:12;1.83;;;1.40;;
49948;SDS011;35840;45.982;8.890;2022-08-06T04:31:44;5.78;;;1.70;;
49948;SDS011;35840;45.982;8.890;2022-08-06T04:34:32;1.60;;;1.50;;
49948;SDS011;35840;45.982;8.890;2022-08-06T04:37:21;2.53;;;1.40;;
49948;SDS011;35840;45.982;8.890;2022-08-06T04:39:48;1.60;;;1.45;;
49948;SDS011;35840;45.982;8.890;2022-08-06T04:42:16;2.45;;;1.60;;
49948;SDS011;35840;45.982;8.890;2022-08-06T04:44:44;2.55;;;1.50;;
49948;SDS011;35840;45.982;8.890;2022-08-06T04:47:24;2.42;;;1.90;;
49948;SDS011;35840;45.982;8.890;2022-08-06T04:50:11;5.25;;;1.58;;
49948;SDS011;35840;45.982;8.890;2022-08-06T04:52:42;1.83;;;1.60;;
49948;SDS011;35840;45.982;8.890;2022-08-06T04:55:17;1.35;;;1.25;;
49948;SDS011;35840;45.982;8.890;2022-08-06T04:57:59;1.52;;;1.40;;
49948;SDS011;35840;45.982;8.890;2022-08-06T05:00:46;2.28;;;1.77;;
49948;SDS011;35840;45.982;8.890;2022-08-06T05:03:26;2.33;;;2.05;;
49948;SDS011;35840;45.982;8.890;2022-08-06T05:06:25;2.13;;;1.52;;
49948;SDS011;35840;45.982;8.890;2022-08-06T05:09:01;3.30;;;1.80;;
49948;SDS011;35840;45.982;8.890;2022-08-06T05:11:50;7.95;;;2.67;;
49948;SDS011;35840;45.982;8.890;2022-08-06T05:14:29;3.72;;;1.60;;
49948;SDS011;35840;45.982;8.890;2022-08-06T05:17:02;7.53;;;2.70;;
49948;SDS011;35840;45.982;8.890;2022-08-06T05:19:51;2.10;;;1.48;;
49948;SDS011;35840;45.982;8.890;2022-08-06T05:22:22;1.80;;;1.33;;
49948;SDS011;35840;45.982;8.890;2022-08-06T05:25:11;1.55;;;1.45;;
49948;SDS011;35840;45.982;8.890;2022-08-06T05:27:48;2.25;;;1.30;;
49948;SDS011;35840;45.982;8.890;2022-08-06T05:30:41;1.45;;;1.33;;
49948;SDS011;35840;45.982;8.890;2022-08-06T05:33:34;1.60;;;1.50;;
49948;SDS011;35840;45.982;8.890;2022-08-06T05:36:08;1.73;;;1.60;;
49948;SDS011;35840;45.982;8.890;2022-08-06T05:38:44;2.42;;;1.60;;
49948;SDS011;35840;45.982;8.890;2022-08-06T05:41:24;2.47;;;1.45;;
49948;SDS011;35840;45.982;8.890;2022-08-06T05:43:55;1.52;;;1.42;;
49948;SDS011;35840;45.982;8.890;2022-08-06T05:46:33;4.47;;;1.40;;
49948;SDS011;35840;45.982;8.890;2022-08-06T05:49:12;3.40;;;1.30;;
49948;SDS011;35840;45.982;8.890;2022-08-06T05:52:12;3.53;;;1.42;;
49948;SDS011;35840;45.982;8.890;2022-08-06T05:57:38;1.52;;;1.42;;
49948;SDS011;35840;45.982;8.890;2022-08-06T06:00:12;1.38;;;1.27;;
49948;SDS011;35840;45.982;8.890;2022-08-06T06:03:03;1.77;;;1.38;;
49948;SDS011;35840;45.982;8.890;2022-08-06T06:05:32;1.52;;;1.42;;
49948;SDS011;35840;45.982;8.890;2022-08-06T06:08:19;1.55;;;1.20;;
49948;SDS011;35840;45.982;8.890;2022-08-06T06:11:06;2.15;;;1.50;;
49948;SDS011;35840;45.982;8.890;2022-08-06T06:13:35;1.73;;;1.63;;
49948;SDS011;35840;45.982;8.890;2022-08-06T06:16:25;2.67;;;1.35;;
49948;SDS011;35840;45.982;8.890;2022-08-06T06:21:51;2.22;;;2.03;;
49948;SDS011;35840;45.982;8.890;2022-08-06T06:24:37;1.88;;;1.75;;
49948;SDS011;35840;45.982;8.890;2022-08-06T06:27:30;2.88;;;1.35;;
49948;SDS011;35840;45.982;8.890;2022-08-06T06:30:26;2.30;;;1.40;;
49948;SDS011;35840;45.982;8.890;2022-08-06T06:33:24;2.60;;;1.50;;
49948;SDS011;35840;45.982;8.890;2022-08-06T06:36:23;2.35;;;1.67;;
49948;SDS011;35840;45.982;8.890;2022-08-06T06:41:47;2.53;;;1.50;;
49948;SDS011;35840;45.982;8.890;2022-08-06T06:47:28;3.60;;;2.03;;
49948;SDS011;35840;45.982;8.890;2022-08-06T06:50:13;3.80;;;1.38;;
49948;SDS011;35840;45.982;8.890;2022-08-06T06:52:46;2.03;;;1.45;;
49948;SDS011;35840;45.982;8.890;2022-08-06T06:58:21;2.15;;;1.80;;
49948;SDS011;35840;45.982;8.890;2022-08-06T07:00:57;1.30;;;1.20;;
49948;SDS011;35840;45.982;8.890;2022-08-06T07:03:45;6.03;;;1.45;;
49948;SDS011;35840;45.982;8.890;2022-08-06T07:06:14;3.30;;;1.45;;
49948;SDS011;35840;45.982;8.890;2022-08-06T07:09:02;3.05;;;1.83;;
49948;SDS011;35840;45.982;8.890;2022-08-06T07:11:40;1.67;;;1.30;;
49948;SDS011;35840;45.982;8.890;2022-08-06T07:14:29;1.42;;;1.33;;
49948;SDS011;35840;45.982;8.890;2022-08-06T07:16:59;1.42;;;1.10;;
49948;SDS011;35840;45.982;8.890;2022-08-06T07:19:48;4.05;;;1.45;;
49948;SDS011;35840;45.982;8.890;2022-08-06T07:22:20;2.67;;;1.65;;
49948;SDS011;35840;45.982;8.890;2022-08-06T07:24:54;2.47;;;1.35;;
49948;SDS011;35840;45.982;8.890;2022-08-06T07:27:26;3.80;;;1.67;;
49948;SDS011;35840;45.982;8.890;2022-08-06T07:30:08;1.70;;;1.60;;
49948;SDS011;35840;45.982;8.890;2022-08-06T07:32:50;3.17;;;1.55;;
49948;SDS011;35840;45.982;8.890;2022-08-06T07:35:18;2.30;;;1.30;;
49948;SDS011;35840;45.982;8.890;2022-08-06T07:37:54;2.03;;;1.75;;
49948;SDS011;35840;45.982;8.890;2022-08-06T07:43:12;1.40;;;1.30;;
49948;SDS011;35840;45.982;8.890;2022-08-06T07:45:50;1.15;;;1.15;;
49948;SDS011;35840;45.982;8.890;2022-08-06T07:48:24;1.70;;;1.50;;
49948;SDS011;35840;45.982;8.890;2022-08-06T07:50:58;2.97;;;1.40;;
49948;SDS011;35840;45.982;8.890;2022-08-06T07:53:26;1.70;;;1.55;;
49948;SDS011;35840;45.982;8.890;2022-08-06T07:56:13;1.45;;;1.35;;
49948;SDS011;35840;45.982;8.890;2022-08-06T07:58:42;2.08;;;1.67;;
49948;SDS011;35840;45.982;8.890;2022-08-06T08:01:11;2.38;;;1.50;;
49948;SDS011;35840;45.982;8.890;2022-08-06T08:03:44;2.42;;;1.55;;
49948;SDS011;35840;45.982;8.890;2022-08-06T08:06:50;1.58;;;1.48;;
49948;SDS011;35840;45.982;8.890;2022-08-06T08:09:19;1.58;;;1.48;;
49948;SDS011;35840;45.982;8.890;2022-08-06T08:12:12;4.00;;;1.65;;
49948;SDS011;35840;45.982;8.890;2022-08-06T08:14:59;3.17;;;1.55;;
49948;SDS011;35840;45.982;8.890;2022-08-06T08:17:28;2.60;;;2.00;;
49948;SDS011;35840;45.982;8.890;2022-08-06T08:20:01;1.88;;;1.65;;
49948;SDS011;35840;45.982;8.890;2022-08-06T08:22:42;1.92;;;1.60;;
49948;SDS011;35840;45.982;8.890;2022-08-06T08:25:16;2.65;;;1.55;;
49948;SDS011;35840;45.982;8.890;2022-08-06T08:28:04;2.53;;;1.60;;
49948;SDS011;35840;45.982;8.890;2022-08-06T08:30:41;1.83;;;1.73;;
49948;SDS011;35840;45.982;8.890;2022-08-06T08:33:10;1.65;;;1.55;;
49948;SDS011;35840;45.982;8.890;2022-08-06T08:35:44;5.18;;;1.30;;
49948;SDS011;35840;45.982;8.890;2022-08-06T08:38:26;2.05;;;1.60;;
49948;SDS011;35840;45.982;8.890;2022-08-06T08:41:04;2.40;;;1.60;;
49948;SDS011;35840;45.982;8.890;2022-08-06T08:43:40;2.55;;;1.42;;
49948;SDS011;35840;45.982;8.890;2022-08-06T08:46:29;1.60;;;1.50;;
49948;SDS011;35840;45.982;8.890;2022-08-06T08:49:04;4.85;;;1.77;;
49948;SDS011;35840;45.982;8.890;2022-08-06T08:51:33;2.22;;;1.30;;
49948;SDS011;35840;45.982;8.890;2022-08-06T08:54:09;1.92;;;1.60;;
49948;SDS011;35840;45.982;8.890;2022-08-06T08:56:44;1.30;;;1.20;;
49948;SDS011;35840;45.982;8.890;2022-08-06T08:59:32;1.73;;;1.60;;
49948;SDS011;35840;45.982;8.890;2022-08-06T09:02:19;2.80;;;1.65;;
49948;SDS011;35840;45.982;8.890;2022-08-06T09:04:49;2.28;;;1.60;;
49948;SDS011;35840;45.982;8.890;2022-08-06T09:07:18;2.58;;;1.30;;
49948;SDS011;35840;45.982;8.890;2022-08-06T09:10:02;1.80;;;1.70;;
49948;SDS011;35840;45.982;8.890;2022-08-06T09:12:37;3.28;;;1.52;;
49948;SDS011;35840;45.982;8.890;2022-08-06T09:15:13;3.13;;;1.90;;
49948;SDS011;35840;45.982;8.890;2022-08-06T09:17:49;1.95;;;1.65;;
49948;SDS011;35840;45.982;8.890;2022-08-06T09:20:36;1.58;;;1.48;;
49948;SDS011;35840;45.982;8.890;2022-08-06T09:23:11;1.60;;;1.50;;
49948;SDS011;35840;45.982;8.890;2022-08-06T09:25:41;1.50;;;1.40;;
49948;SDS011;35840;45.982;8.890;2022-08-06T09:33:58;2.25;;;1.30;;
49948;SDS011;35840;45.982;8.890;2022-08-06T09:36:49;1.63;;;1.38;;
49948;SDS011;35840;45.982;8.890;2022-08-06T09:39:29;1.65;;;1.55;;
49948;SDS011;35840;45.982;8.890;2022-08-06T09:42:34;1.60;;;1.50;;
49948;SDS011;35840;45.982;8.890;2022-08-06T09:45:04;1.90;;;1.80;;
49948;SDS011;35840;45.982;8.890;2022-08-06T09:47:42;1.80;;;1.50;;
49948;SDS011;35840;45.982;8.890;2022-08-06T09:50:45;2.92;;;1.80;;
49948;SDS011;35840;45.982;8.890;2022-08-06T09:53:13;1.50;;;1.40;;
49948;SDS011;35840;45.982;8.890;2022-08-06T09:55:46;2.78;;;1.83;;
49948;SDS011;35840;45.982;8.890;2022-08-06T09:58:13;2.40;;;1.83;;
49948;SDS011;35840;45.982;8.890;2022-08-06T10:00:57;1.67;;;1.50;;
49948;SDS011;35840;45.982;8.890;2022-08-06T10:03:48;2.67;;;1.60;;
49948;SDS011;35840;45.982;8.890;2022-08-06T10:06:35;1.73;;;1.60;;
49948;SDS011;35840;45.982;8.890;2022-08-06T10:09:20;1.40;;;1.30;;
49948;SDS011;35840;45.982;8.890;2022-08-06T10:12:20;1.80;;;1.50;;
49948;SDS011;35840;45.982;8.890;2022-08-06T10:14:52;1.50;;;1.40;;
49948;SDS011;35840;45.982;8.890;2022-08-06T10:17:21;2.28;;;1.55;;
49948;SDS011;35840;45.982;8.890;2022-08-06T10:22:50;2.17;;;1.48;;
49948;SDS011;35840;45.982;8.890;2022-08-06T10:25:20;1.67;;;1.30;;
49948;SDS011;35840;45.982;8.890;2022-08-06T10:27:55;1.40;;;1.20;;
49948;SDS011;35840;45.982;8.890;2022-08-06T10:30:22;1.20;;;1.10;;
49948;SDS011;35840;45.982;8.890;2022-08-06T10:32:55;2.35;;;1.30;;
49948;SDS011;35840;45.982;8.890;2022-08-06T10:35:25;1.55;;;1.45;;
49948;SDS011;35840;45.982;8.890;2022-08-06T10:37:59;1.83;;;1.58;;
49948;SDS011;35840;45.982;8.890;2022-08-06T10:40:41;1.30;;;1.20;;
49948;SDS011;35840;45.982;8.890;2022-08-06T10:43:24;1.35;;;1.25;;
49948;SDS011;35840;45.982;8.890;2022-08-06T10:46:05;1.50;;;1.30;;
49948;SDS011;35840;45.982;8.890;2022-08-06T10:48:37;1.60;;;1.50;;
49948;SDS011;35840;45.982;8.890;2022-08-06T10:51:25;1.95;;;1.50;;
49948;SDS011;35840;45.982;8.890;2022-08-06T10:54:16;1.85;;;1.40;;
49948;SDS011;35840;45.982;8.890;2022-08-06T10:56:48;1.30;;;1.20;;
49948;SDS011;35840;45.982;8.890;2022-08-06T10:59:15;1.42;;;1.33;;
49948;SDS011;35840;45.982;8.890;2022-08-06T11:04:59;2.85;;;1.58;;
49948;SDS011;35840;45.982;8.890;2022-08-06T11:07:53;1.77;;;1.40;;
49948;SDS011;35840;45.982;8.890;2022-08-06T11:11:16;1.35;;;1.25;;
49948;SDS011;35840;45.982;8.890;2022-08-06T11:14:24;1.58;;;1.10;;
49948;SDS011;35840;45.982;8.890;2022-08-06T11:16:54;1.60;;;1.17;;
49948;SDS011;35840;45.982;8.890;2022-08-06T11:19:44;1.52;;;1.42;;
49948;SDS011;35840;45.982;8.890;2022-08-06T11:25:05;1.58;;;1.48;;
49948;SDS011;35840;45.982;8.890;2022-08-06T11:27:55;1.45;;;1.33;;
49948;SDS011;35840;45.982;8.890;2022-08-06T11:33:07;2.20;;;1.25;;
49948;SDS011;35840;45.982;8.890;2022-08-06T11:44:11;2.35;;;1.40;;
49948;SDS011;35840;45.982;8.890;2022-08-06T11:46:43;1.60;;;1.50;;
49948;SDS011;35840;45.982;8.890;2022-08-06T12:02:16;1.50;;;1.40;;
49948;SDS011;35840;45.982;8.890;2022-08-06T12:05:06;1.33;;;1.30;;
49948;SDS011;35840;45.982;8.890;2022-08-06T12:07:43;1.90;;;1.33;;
49948;SDS011;35840;45.982;8.890;2022-08-06T12:10:16;2.20;;;1.23;;
49948;SDS011;35840;45.982;8.890;2022-08-06T12:12:55;2.28;;;1.40;;
49948;SDS011;35840;45.982;8.890;2022-08-06T12:18:12;1.45;;;1.35;;
49948;SDS011;35840;45.982;8.890;2022-08-06T12:20:46;1.50;;;1.40;;
49948;SDS011;35840;45.982;8.890;2022-08-06T12:23:21;2.33;;;1.38;;
49948;SDS011;35840;45.982;8.890;2022-08-06T12:26:10;1.45;;;1.35;;
49948;SDS011;35840;45.982;8.890;2022-08-06T12:28:37;1.40;;;1.30;;
49948;SDS011;35840;45.982;8.890;2022-08-06T12:31:04;2.03;;;1.20;;
49948;SDS011;35840;45.982;8.890;2022-08-06T12:33:51;1.50;;;1.40;;
49948;SDS011;35840;45.982;8.890;2022-08-06T12:36:17;1.83;;;1.15;;
49948;SDS011;35840;45.982;8.890;2022-08-06T12:39:01;2.20;;;1.35;;
49948;SDS011;35840;45.982;8.890;2022-08-06T12:41:37;1.58;;;1.48;;
49948;SDS011;35840;45.982;8.890;2022-08-06T12:44:12;1.55;;;1.45;;
49948;SDS011;35840;45.982;8.890;2022-08-06T12:47:13;1.42;;;1.33;;
49948;SDS011;35840;45.982;8.890;2022-08-06T12:49:40;2.20;;;1.60;;
49948;SDS011;35840;45.982;8.890;2022-08-06T12:52:13;2.15;;;1.35;;
49948;SDS011;35840;45.982;8.890;2022-08-06T12:54:43;1.35;;;1.30;;
49948;SDS011;35840;45.982;8.890;2022-08-06T13:00:12;2.20;;;1.30;;
49948;SDS011;35840;45.982;8.890;2022-08-06T13:02:40;1.40;;;1.30;;
49948;SDS011;35840;45.982;8.890;2022-08-06T13:05:12;1.20;;;1.20;;
49948;SDS011;35840;45.982;8.890;2022-08-06T13:07:40;1.40;;;1.30;;
49948;SDS011;35840;45.982;8.890;2022-08-06T13:10:12;1.60;;;1.50;;
49948;SDS011;35840;45.982;8.890;2022-08-06T13:13:00;1.52;;;1.42;;
49948;SDS011;35840;45.982;8.890;2022-08-06T13:16:05;1.40;;;1.30;;
49948;SDS011;35840;45.982;8.890;2022-08-06T13:18:34;1.60;;;1.50;;
49948;SDS011;35840;45.982;8.890;2022-08-06T13:21:20;1.25;;;1.15;;
49948;SDS011;35840;45.982;8.890;2022-08-06T13:24:09;1.55;;;1.45;;
49948;SDS011;35840;45.982;8.890;2022-08-06T13:26:50;1.70;;;1.48;;
49948;SDS011;35840;45.982;8.890;2022-08-06T13:29:21;1.60;;;1.50;;
49948;SDS011;35840;45.982;8.890;2022-08-06T13:32:10;1.95;;;1.67;;
49948;SDS011;35840;45.982;8.890;2022-08-06T13:34:58;1.52;;;1.40;;
49948;SDS011;35840;45.982;8.890;2022-08-06T13:40:36;1.60;;;1.50;;
49948;SDS011;35840;45.982;8.890;2022-08-06T13:43:33;1.88;;;1.77;;
49948;SDS011;35840;45.982;8.890;2022-08-06T13:46:19;1.52;;;1.42;;
49948;SDS011;35840;45.982;8.890;2022-08-06T13:48:55;1.55;;;1.45;;
49948;SDS011;35840;45.982;8.890;2022-08-06T13:51:27;2.03;;;1.60;;
49948;SDS011;35840;45.982;8.890;2022-08-06T13:54:02;1.63;;;1.53;;
49948;SDS011;35840;45.982;8.890;2022-08-06T13:56:44;1.40;;;1.30;;
49948;SDS011;35840;45.982;8.890;2022-08-06T13:59:17;4.00;;;1.30;;
49948;SDS011;35840;45.982;8.890;2022-08-06T14:01:47;3.88;;;1.50;;
49948;SDS011;35840;45.982;8.890;2022-08-06T14:04:19;3.08;;;1.58;;
49948;SDS011;35840;45.982;8.890;2022-08-06T14:06:51;1.35;;;1.25;;
49948;SDS011;35840;45.982;8.890;2022-08-06T14:09:20;2.78;;;1.50;;
49948;SDS011;35840;45.982;8.890;2022-08-06T14:11:52;1.50;;;1.40;;
49948;SDS011;35840;45.982;8.890;2022-08-06T14:14:22;1.80;;;1.70;;
49948;SDS011;35840;45.982;8.890;2022-08-06T14:16:53;3.05;;;1.63;;
49948;SDS011;35840;45.982;8.890;2022-08-06T14:19:21;1.60;;;1.50;;
49948;SDS011;35840;45.982;8.890;2022-08-06T14:22:08;1.45;;;1.35;;
49948;SDS011;35840;45.982;8.890;2022-08-06T14:24:35;2.97;;;1.50;;
49948;SDS011;35840;45.982;8.890;2022-08-06T14:27:06;1.85;;;1.63;;
49948;SDS011;35840;45.982;8.890;2022-08-06T14:29:44;2.20;;;1.70;;
49948;SDS011;35840;45.982;8.890;2022-08-06T14:32:31;1.80;;;1.70;;
49948;SDS011;35840;45.982;8.890;2022-08-06T14:34:58;1.95;;;1.50;;
49948;SDS011;35840;45.982;8.890;2022-08-06T14:37:31;1.83;;;1.60;;
49948;SDS011;35840;45.982;8.890;2022-08-06T14:40:19;1.85;;;1.50;;
49948;SDS011;35840;45.982;8.890;2022-08-06T14:43:27;2.65;;;1.63;;
49948;SDS011;35840;45.982;8.890;2022-08-06T14:49:00;2.03;;;1.40;;
49948;SDS011;35840;45.982;8.890;2022-08-06T14:51:34;2.38;;;1.70;;
49948;SDS011;35840;45.982;8.890;2022-08-06T14:54:20;3.28;;;1.70;;
49948;SDS011;35840;45.982;8.890;2022-08-06T14:57:01;1.90;;;1.58;;
49948;SDS011;35840;45.982;8.890;2022-08-06T14:59:42;1.48;;;1.38;;
49948;SDS011;35840;45.982;8.890;2022-08-06T15:02:14;2.03;;;1.83;;
49948;SDS011;35840;45.982;8.890;2022-08-06T15:04:41;3.28;;;1.65;;
49948;SDS011;35840;45.982;8.890;2022-08-06T15:07:11;1.63;;;1.50;;
49948;SDS011;35840;45.982;8.890;2022-08-06T15:09:52;1.90;;;1.67;;
49948;SDS011;35840;45.982;8.890;2022-08-06T15:12:40;1.35;;;1.33;;
49948;SDS011;35840;45.982;8.890;2022-08-06T15:15:17;1.70;;;1.60;;
49948;SDS011;35840;45.982;8.890;2022-08-06T15:18:01;1.55;;;1.45;;
49948;SDS011;35840;45.982;8.890;2022-08-06T15:20:48;1.88;;;1.77;;
49948;SDS011;35840;45.982;8.890;2022-08-06T15:23:16;1.88;;;1.60;;
49948;SDS011;35840;45.982;8.890;2022-08-06T15:25:45;2.08;;;1.77;;
49948;SDS011;35840;45.982;8.890;2022-08-06T15:28:31;1.48;;;1.38;;
49948;SDS011;35840;45.982;8.890;2022-08-06T15:31:00;2.30;;;1.55;;
49948;SDS011;35840;45.982;8.890;2022-08-06T15:33:32;2.55;;;1.60;;
49948;SDS011;35840;45.982;8.890;2022-08-06T15:36:01;2.10;;;1.90;;
49948;SDS011;35840;45.982;8.890;2022-08-06T15:38:29;3.13;;;1.75;;
49948;SDS011;35840;45.982;8.890;2022-08-06T15:40:58;2.47;;;1.73;;
49948;SDS011;35840;45.982;8.890;2022-08-06T15:43:26;2.95;;;1.65;;
49948;SDS011;35840;45.982;8.890;2022-08-06T15:46:10;2.05;;;1.77;;
49948;SDS011;35840;45.982;8.890;2022-08-06T15:48:37;2.17;;;2.05;;
49948;SDS011;35840;45.982;8.890;2022-08-06T15:51:12;1.80;;;1.70;;
49948;SDS011;35840;45.982;8.890;2022-08-06T15:53:55;1.90;;;1.80;;
49948;SDS011;35840;45.982;8.890;2022-08-06T15:56:24;2.65;;;1.50;;
49948;SDS011;35840;45.982;8.890;2022-08-06T15:59:12;2.30;;;1.85;;
49948;SDS011;35840;45.982;8.890;2022-08-06T16:01:45;1.92;;;1.80;;
49948;SDS011;35840;45.982;8.890;2022-08-06T16:04:28;2.22;;;2.00;;
49948;SDS011;35840;45.982;8.890;2022-08-06T16:07:01;3.10;;;1.80;;
49948;SDS011;35840;45.982;8.890;2022-08-06T16:09:35;2.13;;;1.65;;
49948;SDS011;35840;45.982;8.890;2022-08-06T16:12:22;2.20;;;2.10;;
49948;SDS011;35840;45.982;8.890;2022-08-06T16:14:49;2.10;;;1.90;;
49948;SDS011;35840;45.982;8.890;2022-08-06T16:17:21;5.20;;;2.13;;
49948;SDS011;35840;45.982;8.890;2022-08-06T16:20:08;2.65;;;2.05;;
49948;SDS011;35840;45.982;8.890;2022-08-06T16:22:36;2.67;;;1.85;;
49948;SDS011;35840;45.982;8.890;2022-08-06T16:25:02;2.25;;;2.05;;
49948;SDS011;35840;45.982;8.890;2022-08-06T16:27:30;8.65;;;2.55;;
49948;SDS011;35840;45.982;8.890;2022-08-06T16:30:03;4.45;;;2.20;;
49948;SDS011;35840;45.982;8.890;2022-08-06T16:32:30;3.47;;;2.50;;
49948;SDS011;35840;45.982;8.890;2022-08-06T16:34:59;4.57;;;2.33;;
49948;SDS011;35840;45.982;8.890;2022-08-06T16:37:25;6.13;;;2.40;;
49948;SDS011;35840;45.982;8.890;2022-08-06T16:40:05;4.43;;;2.45;;
49948;SDS011;35840;45.982;8.890;2022-08-06T16:42:34;2.75;;;2.50;;
49948;SDS011;35840;45.982;8.890;2022-08-06T16:45:02;3.38;;;2.28;;
49948;SDS011;35840;45.982;8.890;2022-08-06T16:47:40;3.45;;;2.53;;
49948;SDS011;35840;45.982;8.890;2022-08-06T16:50:28;4.00;;;2.63;;
49948;SDS011;35840;45.982;8.890;2022-08-06T16:53:05;3.17;;;2.75;;
49948;SDS011;35840;45.982;8.890;2022-08-06T16:55:52;3.95;;;2.97;;
49948;SDS011;35840;45.982;8.890;2022-08-06T16:58:20;4.32;;;2.80;;
49948;SDS011;35840;45.982;8.890;2022-08-06T17:01:01;4.70;;;3.17;;
49948;SDS011;35840;45.982;8.890;2022-08-06T17:03:49;3.90;;;2.55;;
49948;SDS011;35840;45.982;8.890;2022-08-06T17:06:24;4.68;;;3.05;;